»·PEaware :: N2070X KYKM-KOLM

N2070X :: KYKM-KOLM

FLIGHT INFORMATION

Flight Status: Arrived
Operator: Privately registered:
United States
More flights under this callsign
Pilot: Roger K. (8372)
Aircraft: Unknown
(CE T)
More flights by this aircraft type
Origin: KYKM Yakima Air Term/Mcallister
United States
Destination: KOLM Olympia
United States
More flights between these airports :: More routes between these airports
Route: +NACHES4 TUDGY V204 ALDER OPOYU
File this flight plan on PilotEdge
Remarks: +CW /
Altitude:
(Current/Filed)
10,000ft
Speed:
(Current/Filed)
120kts
Departed: 19-Feb-19 09:52 PM
Arrived: 19-Feb-19 10:55 PM
Distance/Time
Traveled:
100nm/1:03
Distance/Time
To Go:
Arrived

Flight Plot

Page will automatically refresh every two minutes.

Flight plan parsing failed; only flown route is shown


Map Options




Map Legend


Flown Route
Filed Route
Departure Airport
Arrival Airport
Navaid (VOR, NDB)
Fix

Horizontal Profiles

Position Reports

Time Latitude Longitude Heading Altitude Ground
Speed
19-Feb-19 21:36 46.570042 -120.537305 262 1097ft 0kts
19-Feb-19 21:37 46.570042 -120.537305 262 1097ft 0kts
19-Feb-19 21:38 46.570042 -120.537305 262 1097ft 0kts
19-Feb-19 21:39 46.570042 -120.537305 262 1097ft 0kts
19-Feb-19 21:40 46.570042 -120.537305 262 1097ft 0kts
19-Feb-19 21:41 46.570039 -120.537327 263 1097ft 1kts
19-Feb-19 21:42 46.569617 -120.536938 99 1097ft 3kts
19-Feb-19 21:43 46.570043 -120.535246 60 1097ft 2kts
19-Feb-19 21:44 46.569653 -120.533224 142 1097ft 9kts
19-Feb-19 21:45 46.567093 -120.531585 218 1097ft 7kts
19-Feb-19 21:46 46.566932 -120.531777 193 1097ft 0kts
19-Feb-19 21:47 46.566918 -120.531779 188 1097ft 1kts
19-Feb-19 21:48 46.566573 -120.531528 179 1097ft 0kts
19-Feb-19 21:49 46.566573 -120.531528 179 1097ft 0kts
19-Feb-19 21:50 46.565769 -120.531565 215 1097ft 4kts
19-Feb-19 21:51 46.569194 -120.546642 291 1250ft 90kts
19-Feb-19 21:52 46.575006 -120.586234 272 2198ft 103kts
19-Feb-19 21:53 46.576769 -120.625276 276 3062ft 95kts
19-Feb-19 21:54 46.573672 -120.664996 281 3777ft 105kts
19-Feb-19 21:55 46.578735 -120.702952 268 4610ft 101kts
19-Feb-19 21:56 46.581877 -120.744740 279 5160ft 102kts
19-Feb-19 21:57 46.589506 -120.781879 292 5567ft 103kts
19-Feb-19 21:58 46.602447 -120.812312 291 6160ft 95kts
19-Feb-19 21:59 46.583517 -120.841009 227 6952ft 104kts
19-Feb-19 22:00 46.572534 -120.873298 277 7741ft 85kts
19-Feb-19 22:01 46.571897 -120.908850 280 8563ft 91kts
19-Feb-19 22:02 46.572049 -120.946570 281 9379ft 95kts
19-Feb-19 22:03 46.572380 -120.985567 281 10048ft 110kts
19-Feb-19 22:04 46.573665 -121.039679 278 10030ft 146kts
19-Feb-19 22:05 46.574233 -121.097598 278 10194ft 147kts
19-Feb-19 22:06 46.574713 -121.157367 276 10191ft 151kts
19-Feb-19 22:07 46.575089 -121.218553 276 10191ft 151kts
19-Feb-19 22:08 46.575415 -121.279821 276 10191ft 151kts
19-Feb-19 22:09 46.575705 -121.340976 276 10191ft 151kts
19-Feb-19 22:10 46.575961 -121.402124 276 10191ft 151kts
19-Feb-19 22:11 46.576186 -121.463349 276 10191ft 151kts
19-Feb-19 22:12 46.576379 -121.524575 276 10191ft 151kts
19-Feb-19 22:13 46.576539 -121.585742 276 10192ft 151kts
19-Feb-19 22:14 46.578757 -121.648112 296 10187ft 154kts
19-Feb-19 22:15 46.596399 -121.705097 300 10191ft 155kts
19-Feb-19 22:16 46.615310 -121.764068 300 10017ft 158kts
19-Feb-19 22:17 46.633465 -121.821197 300 10016ft 151kts
19-Feb-19 22:18 46.650809 -121.875955 300 10017ft 147kts
19-Feb-19 22:19 46.666169 -121.925440 301 10357ft 133kts
19-Feb-19 22:20 46.682547 -121.976889 301 10358ft 145kts
19-Feb-19 22:21 46.699683 -122.030870 301 10357ft 147kts
19-Feb-19 22:23 46.716881 -122.085330 300 10357ft 148kts
19-Feb-19 22:24 46.733969 -122.139558 300 10353ft 148kts
19-Feb-19 22:25 46.751030 -122.193887 300 10354ft 147kts
19-Feb-19 22:26 46.775141 -122.240850 320 10029ft 148kts
19-Feb-19 22:27 46.804226 -122.283861 321 9529ft 150kts
19-Feb-19 22:28 46.834010 -122.327031 321 9025ft 151kts
19-Feb-19 22:29 46.864195 -122.369900 321 8523ft 151kts
19-Feb-19 22:30 46.893282 -122.410867 321 8284ft 139kts
19-Feb-19 22:31 46.920733 -122.449340 321 7778ft 135kts
19-Feb-19 22:32 46.947696 -122.486315 321 7284ft 135kts
19-Feb-19 22:33 46.975406 -122.523407 321 6783ft 135kts
19-Feb-19 22:34 47.003328 -122.559874 321 6284ft 134kts
19-Feb-19 22:35 47.031285 -122.595544 321 5782ft 132kts
19-Feb-19 22:36 47.059057 -122.630163 321 5284ft 130kts
19-Feb-19 22:37 47.089157 -122.658292 333 4786ft 128kts
19-Feb-19 22:38 47.120546 -122.683098 333 4289ft 128kts
19-Feb-19 22:39 47.151986 -122.707291 333 3792ft 126kts
19-Feb-19 22:40 47.182018 -122.731335 307 3399ft 112kts
19-Feb-19 22:41 47.191742 -122.770223 283 3408ft 99kts
19-Feb-19 22:42 47.192747 -122.805976 233 3407ft 87kts
19-Feb-19 22:43 47.181562 -122.837550 213 3408ft 83kts
19-Feb-19 22:44 47.161815 -122.848826 185 3476ft 66kts
19-Feb-19 22:44 47.147586 -122.853143 185 3404ft 57kts
19-Feb-19 22:45 47.130922 -122.857980 185 3376ft 76kts
19-Feb-19 22:47 47.105640 -122.865198 187 2880ft 80kts
19-Feb-19 22:48 47.083842 -122.871517 187 2438ft 80kts
19-Feb-19 22:48 47.066405 -122.876279 184 2066ft 74kts
19-Feb-19 22:49 47.046491 -122.883959 204 1475ft 73kts
19-Feb-19 22:50 47.030639 -122.888118 212 1307ft 54kts
19-Feb-19 22:51 47.015359 -122.890914 195 895ft 64kts
19-Feb-19 22:52 47.000564 -122.896397 188 691ft 51kts
19-Feb-19 22:53 46.984107 -122.900732 188 439ft 69kts
19-Feb-19 22:54 46.972405 -122.903742 190 210ft 0kts
19-Feb-19 22:55 46.972318 -122.903758 189 210ft 3kts
19-Feb-19 22:56 46.971073 -122.904145 185 210ft 7kts
19-Feb-19 22:57 46.970819 -122.898637 316 210ft 27kts
19-Feb-19 22:58 46.972461 -122.896170 49 210ft 0kts
19-Feb-19 22:59 46.972910 -122.895516 292 210ft 0kts
19-Feb-19 23:00 46.972910 -122.895516 292 210ft 0kts

Navigation Log

Ident Type
Flight plan parsing failed, navigation log unavailable